createdAt,value
2022-07-30T02:10:38.693Z,5.07
2022-07-30T02:34:36.687Z,4.68
2022-07-30T02:38:25.349Z,4.53
2022-07-30T02:41:16.686Z,4.20
2022-07-30T03:25:15.727Z,4.75
2022-07-30T03:28:40.748Z,4.00
2022-07-30T03:31:37.839Z,4.10
2022-07-30T03:34:29.699Z,4.22
2022-07-30T03:56:10.731Z,4.03
2022-07-30T04:18:21.716Z,4.28
2022-07-30T05:16:23.813Z,3.38
2022-07-30T06:38:27.843Z,3.90
2022-07-30T08:06:30.813Z,5.13
2022-07-30T08:54:45.568Z,6.30
2022-07-30T08:57:39.851Z,6.53
2022-07-30T09:00:45.300Z,5.50
2022-07-30T09:07:36.873Z,6.53
2022-07-30T09:28:19.885Z,6.03
2022-07-30T09:31:01.933Z,6.45
2022-07-30T09:33:53.876Z,6.57
2022-07-30T09:36:37.910Z,5.85
2022-07-30T09:39:38.930Z,6.82
2022-07-30T09:42:29.021Z,6.03
2022-07-30T09:48:23.038Z,6.68
2022-07-30T09:51:15.677Z,6.55
2022-07-30T09:53:59.351Z,6.60
2022-07-30T09:56:53.885Z,6.15
2022-07-30T09:59:43.937Z,5.35
2022-07-30T10:02:34.027Z,5.60
2022-07-30T10:05:16.563Z,6.20
2022-07-30T10:08:16.580Z,5.20
2022-07-30T10:11:08.637Z,5.90
2022-07-30T10:13:59.874Z,5.78
2022-07-30T10:16:40.671Z,5.43
2022-07-30T10:19:40.377Z,5.13
2022-07-30T10:22:22.365Z,5.50
2022-07-30T10:25:11.912Z,5.25
2022-07-30T10:27:57.689Z,5.43
2022-07-30T10:33:40.957Z,5.32
2022-07-30T10:36:31.921Z,5.20
2022-07-30T10:39:13.964Z,4.65
2022-07-30T10:42:27.920Z,5.10
2022-07-30T10:45:18.964Z,5.00
2022-07-30T10:48:09.911Z,5.70
2022-07-30T10:51:10.921Z,5.60
2022-07-30T10:54:14.921Z,5.55
2022-07-30T10:57:31.695Z,5.03
2022-07-30T11:00:15.548Z,5.47
2022-07-30T11:03:41.104Z,5.18
2022-07-30T11:10:04.286Z,5.10
2022-07-30T11:13:01.943Z,4.88
2022-07-30T11:16:14.905Z,5.07
2022-07-30T11:19:56.923Z,4.72
2022-07-30T11:22:38.883Z,5.20
2022-07-30T11:25:54.441Z,4.88
2022-07-30T11:29:01.925Z,5.32
2022-07-30T11:31:58.850Z,5.25
2022-07-30T11:34:48.938Z,5.07
2022-07-30T11:38:08.912Z,5.53
2022-07-30T11:41:18.937Z,5.40
2022-07-30T11:44:32.064Z,5.55
2022-07-30T11:47:21.947Z,5.80
2022-07-30T11:50:12.945Z,5.63
2022-07-30T11:52:54.306Z,5.63
2022-07-30T11:55:49.927Z,5.40
2022-07-30T11:58:43.954Z,5.53
2022-07-30T12:01:23.990Z,5.72
2022-07-30T12:04:15.962Z,5.90
2022-07-30T12:06:56.005Z,5.40
2022-07-30T12:09:45.960Z,5.22
2022-07-30T12:12:29.424Z,4.75
2022-07-30T12:15:19.944Z,6.07
2022-07-30T12:18:27.140Z,5.45
2022-07-30T12:21:13.989Z,5.30
2022-07-30T12:24:04.142Z,5.57
2022-07-30T12:26:53.945Z,4.78
2022-07-30T12:29:44.007Z,4.30
2022-07-30T12:32:33.969Z,4.50
2022-07-30T12:35:23.981Z,4.00
2022-07-30T12:38:21.970Z,4.13
2022-07-30T12:41:14.961Z,3.53
2022-07-30T12:43:57.042Z,2.97
2022-07-30T12:46:50.952Z,2.90
2022-07-30T12:49:50.251Z,3.15
2022-07-30T12:52:34.558Z,3.90
2022-07-30T12:55:26.985Z,3.80
2022-07-30T12:58:09.113Z,4.50
2022-07-30T13:01:07.011Z,4.35
2022-07-30T13:03:47.363Z,4.70
2022-07-30T13:06:37.979Z,4.20
2022-07-30T13:09:20.710Z,4.55
2022-07-30T13:12:37.987Z,4.45
2022-07-30T13:15:22.754Z,4.47
2022-07-30T13:18:11.983Z,4.40
2022-07-30T13:21:04.021Z,4.85
2022-07-30T13:23:56.022Z,4.47
2022-07-30T13:26:36.618Z,4.53
2022-07-30T13:29:28.999Z,5.57
2022-07-30T13:32:09.556Z,5.53
2022-07-30T13:35:01.543Z,5.03
2022-07-30T13:37:52.000Z,5.43
2022-07-30T13:40:32.180Z,5.85
2022-07-30T13:43:22.006Z,6.15
2022-07-30T13:46:03.200Z,5.88
2022-07-30T13:48:53.079Z,6.47
2022-07-30T13:51:42.994Z,6.82
2022-07-30T13:54:33.020Z,6.28
2022-07-30T13:57:23.023Z,6.00
2022-07-30T14:00:06.796Z,5.07
2022-07-30T14:02:57.030Z,5.63
2022-07-30T14:05:42.030Z,4.45
2022-07-30T14:08:32.026Z,5.00
2022-07-30T14:11:22.030Z,4.72
2022-07-30T14:14:02.093Z,5.43
2022-07-30T14:16:58.979Z,4.47
2022-07-30T14:22:29.010Z,3.47
2022-07-30T14:25:19.006Z,3.42
2022-07-30T14:28:09.038Z,4.05
2022-07-30T14:30:59.014Z,3.67
2022-07-30T14:33:49.030Z,3.10
2022-07-30T14:36:30.156Z,2.80
2022-07-30T14:39:23.038Z,3.13
2022-07-30T14:42:03.095Z,2.60
2022-07-30T14:44:56.802Z,4.05
2022-07-30T14:47:47.032Z,4.72
2022-07-30T14:50:27.382Z,5.45
2022-07-30T14:53:21.862Z,4.20
2022-07-30T14:56:12.037Z,4.07
2022-07-30T14:58:53.097Z,4.18
2022-07-30T15:01:43.168Z,4.40
2022-07-30T15:04:25.404Z,4.68
2022-07-30T15:07:15.037Z,4.32
2022-07-30T15:10:05.030Z,4.40
2022-07-30T15:12:45.647Z,4.50
2022-07-30T15:15:38.378Z,3.72
2022-07-30T15:18:28.062Z,3.95
2022-07-30T15:21:09.149Z,3.70
2022-07-30T15:23:59.052Z,3.97
2022-07-30T15:26:39.322Z,3.90
2022-07-30T15:29:29.214Z,3.83
2022-07-30T15:32:09.128Z,3.30
2022-07-30T15:35:13.202Z,3.70
2022-07-30T15:38:03.076Z,3.25
2022-07-30T15:40:43.766Z,3.10
2022-07-30T15:43:33.046Z,3.40
2022-07-30T15:46:23.087Z,3.53
2022-07-30T15:49:03.179Z,3.42
2022-07-30T15:51:58.074Z,2.63
2022-07-30T15:54:48.140Z,2.95
2022-07-30T15:57:28.399Z,2.70
2022-07-30T16:00:18.081Z,2.20
2022-07-30T16:02:59.635Z,3.15
2022-07-30T16:05:51.155Z,2.83
2022-07-30T16:08:42.073Z,2.67
2022-07-30T16:11:22.226Z,2.67
2022-07-30T16:14:12.095Z,2.83
2022-07-30T16:16:55.240Z,2.88
2022-07-30T16:19:45.352Z,2.80
2022-07-30T16:22:35.066Z,3.13
2022-07-30T16:25:25.105Z,3.97
2022-07-30T16:28:15.096Z,3.50
2022-07-30T16:31:05.092Z,3.00
2022-07-30T16:33:45.198Z,5.68
2022-07-30T16:36:35.127Z,3.42
2022-07-30T16:39:22.158Z,2.45
2022-07-30T16:42:05.430Z,2.85
2022-07-30T16:44:45.492Z,2.70
2022-07-30T16:47:35.111Z,3.17
2022-07-30T16:50:16.037Z,3.03
2022-07-30T16:53:08.496Z,3.42
2022-07-30T16:55:50.453Z,2.83
2022-07-30T16:58:40.114Z,3.17
2022-07-30T17:01:20.473Z,3.33
2022-07-30T17:04:10.131Z,3.05
2022-07-30T17:06:51.636Z,3.30
2022-07-30T17:09:41.131Z,2.97
2022-07-30T17:12:25.272Z,3.00
2022-07-30T17:15:15.148Z,2.72
2022-07-30T17:18:05.130Z,2.80
2022-07-30T17:20:45.208Z,3.03
2022-07-30T17:23:35.138Z,2.85
2022-07-30T17:26:15.510Z,2.85
2022-07-30T17:29:05.140Z,2.88
2022-07-30T17:31:59.238Z,3.53
2022-07-30T17:34:41.485Z,3.00
2022-07-30T17:37:31.120Z,3.08
2022-07-30T17:40:28.495Z,3.13
2022-07-30T17:43:13.886Z,2.88
2022-07-30T17:46:04.120Z,3.40
2022-07-30T17:48:44.241Z,3.08
2022-07-30T17:51:34.139Z,3.55
2022-07-30T17:54:14.242Z,2.78
2022-07-30T17:57:04.150Z,3.00
2022-07-30T17:59:54.119Z,2.72
2022-07-30T18:02:45.164Z,2.60
2022-07-30T18:05:25.192Z,2.88
2022-07-30T18:08:15.148Z,2.90
2022-07-30T18:11:05.135Z,2.30
2022-07-30T18:13:48.524Z,2.53
2022-07-30T18:16:38.156Z,2.25
2022-07-30T18:19:22.650Z,2.67
2022-07-30T18:22:17.151Z,2.40
2022-07-30T18:25:18.968Z,2.30
2022-07-30T18:28:09.149Z,2.30
2022-07-30T18:30:52.025Z,2.47
2022-07-30T18:33:42.157Z,2.33
2022-07-30T18:36:22.513Z,2.38
2022-07-30T18:39:12.141Z,2.80
2022-07-30T18:41:52.686Z,2.60
2022-07-30T18:44:42.148Z,2.78
2022-07-30T18:47:22.470Z,2.70
2022-07-30T18:50:12.230Z,2.20
2022-07-30T18:52:52.578Z,2.53
2022-07-30T18:55:42.173Z,2.40
2022-07-30T18:58:25.630Z,2.83
2022-07-30T19:01:15.207Z,2.33
2022-07-30T19:03:55.680Z,2.55
2022-07-30T19:06:47.180Z,2.22
2022-07-30T19:09:27.641Z,2.80
2022-07-30T19:12:17.179Z,2.50
2022-07-30T19:14:57.901Z,2.60
2022-07-30T19:17:47.166Z,2.33
2022-07-30T19:20:27.584Z,3.15
2022-07-30T19:23:20.178Z,2.70
2022-07-30T19:26:00.543Z,2.47
2022-07-30T19:28:50.210Z,2.42
2022-07-30T19:31:30.573Z,2.97
2022-07-30T19:34:20.192Z,2.45
2022-07-30T19:37:14.178Z,2.70
2022-07-30T19:40:14.180Z,2.63
2022-07-30T19:42:55.780Z,2.35
2022-07-30T19:45:48.234Z,2.58
2022-07-30T19:48:31.519Z,3.00
2022-07-30T19:51:21.294Z,2.65
2022-07-30T19:54:05.595Z,2.33
2022-07-30T19:56:55.177Z,2.28
2022-07-30T19:59:59.603Z,2.67
2022-07-30T20:02:53.257Z,2.53
2022-07-30T20:05:54.817Z,2.75
2022-07-30T20:08:44.961Z,2.80
2022-07-30T20:11:36.266Z,2.78
2022-07-30T20:14:26.234Z,2.70
2022-07-30T20:17:16.193Z,2.90
2022-07-30T20:20:08.211Z,3.03
2022-07-30T20:22:48.718Z,2.80
2022-07-30T20:25:38.221Z,2.75
2022-07-30T20:28:32.224Z,2.50
2022-07-30T20:31:13.301Z,2.60
2022-07-30T20:34:03.219Z,2.63
2022-07-30T20:36:44.343Z,2.70
2022-07-30T20:39:35.232Z,2.90
2022-07-30T20:42:15.835Z,2.97
2022-07-30T20:45:06.229Z,3.05
2022-07-30T20:47:59.217Z,2.65
2022-07-30T20:50:51.240Z,3.20
2022-07-30T20:53:33.415Z,2.90
2022-07-30T20:56:28.244Z,3.10
2022-07-30T20:59:23.736Z,3.10
2022-07-30T21:02:15.271Z,2.88
2022-07-30T21:05:05.232Z,3.20
2022-07-30T21:07:56.232Z,3.13
2022-07-30T21:10:38.471Z,3.13
2022-07-30T21:13:28.254Z,2.75
2022-07-30T21:16:22.242Z,3.63
2022-07-30T21:19:12.229Z,2.70
2022-07-30T21:21:54.324Z,2.80
2022-07-30T21:24:44.245Z,2.65
2022-07-30T21:27:39.256Z,3.00
2022-07-30T21:30:30.285Z,3.10
2022-07-30T21:33:20.254Z,3.28
2022-07-30T21:36:10.312Z,3.08
2022-07-30T21:39:04.252Z,3.28
2022-07-30T21:41:48.065Z,3.00
2022-07-30T21:44:41.253Z,3.00
2022-07-30T21:47:25.109Z,3.30
2022-07-30T21:50:19.301Z,3.47
2022-07-30T21:53:04.104Z,3.50
2022-07-30T21:55:57.229Z,2.92
2022-07-30T21:58:50.270Z,3.30
2022-07-30T22:01:38.010Z,3.40
2022-07-30T22:07:32.803Z,3.25
2022-07-30T22:10:25.253Z,3.13
2022-07-30T22:13:08.954Z,3.33
2022-07-30T22:16:03.262Z,3.40
2022-07-30T22:18:46.813Z,2.83
2022-07-30T22:24:40.934Z,3.30
2022-07-30T22:27:39.456Z,3.33
2022-07-30T22:30:23.842Z,3.42
2022-07-30T22:33:23.259Z,2.95
2022-07-30T22:36:24.621Z,3.05
2022-07-30T22:39:21.291Z,3.40
2022-07-30T22:42:15.291Z,3.70
2022-07-30T22:44:59.098Z,3.35
2022-07-30T22:47:54.362Z,3.63
2022-07-30T22:50:51.738Z,3.20
2022-07-30T22:54:03.612Z,3.00
2022-07-30T22:56:48.280Z,3.03
2022-07-30T22:59:58.157Z,3.58
2022-07-30T23:02:44.276Z,2.83
2022-07-30T23:05:40.012Z,3.20
2022-07-30T23:08:37.315Z,3.55
2022-07-30T23:11:21.130Z,3.65
2022-07-30T23:14:15.288Z,3.90
2022-07-30T23:17:08.295Z,3.30
2022-07-30T23:19:52.090Z,4.00
2022-07-30T23:22:45.289Z,4.00
2022-07-30T23:25:38.473Z,3.65
2022-07-30T23:28:31.285Z,3.38
2022-07-30T23:31:25.184Z,3.55
2022-07-30T23:34:06.628Z,4.38
2022-07-30T23:36:56.293Z,3.70
2022-07-30T23:39:53.261Z,3.40
2022-07-30T23:42:43.301Z,3.33
2022-07-30T23:45:24.333Z,3.85
2022-07-30T23:48:15.495Z,3.60
2022-07-30T23:51:05.282Z,3.58
2022-07-30T23:53:45.670Z,3.92
2022-07-30T23:56:35.303Z,3.63
2022-07-30T23:59:40.715Z,3.80
